createdAt,value
2017-07-21T00:00:27.038Z,18.14
2017-07-21T00:01:07.535Z,18.15
2017-07-21T00:01:48.065Z,18.17
2017-07-21T00:02:28.588Z,18.11
2017-07-21T00:03:09.124Z,18.14
2017-07-21T00:03:49.666Z,18.14
2017-07-21T00:04:30.164Z,18.11
2017-07-21T00:05:10.685Z,18.14
2017-07-21T00:05:51.259Z,18.15
2017-07-21T00:06:31.819Z,18.14
2017-07-21T00:07:12.362Z,18.08
2017-07-21T00:07:52.873Z,18.11
2017-07-21T00:08:33.419Z,18.12
2017-07-21T00:09:13.922Z,18.07
2017-07-21T00:09:54.440Z,18.1
2017-07-21T00:10:34.970Z,18.08
2017-07-21T00:11:15.503Z,18.1
2017-07-21T00:11:56.027Z,18.08
2017-07-21T00:12:36.571Z,18.07
2017-07-21T00:13:17.117Z,17.97
2017-07-21T00:13:57.681Z,17.97
2017-07-21T00:14:38.230Z,17.99
2017-07-21T00:15:18.745Z,17.97
2017-07-21T00:15:59.277Z,18.02
2017-07-21T00:16:39.777Z,18
2017-07-21T00:17:20.290Z,17.96
2017-07-21T00:18:00.865Z,17.93
2017-07-21T00:18:41.388Z,18.05
2017-07-21T00:19:21.925Z,17.96
2017-07-21T00:20:02.476Z,17.96
2017-07-21T00:20:43.000Z,17.95
2017-07-21T00:21:23.533Z,17.99
2017-07-21T00:22:04.041Z,17.96
2017-07-21T00:22:44.576Z,18
2017-07-21T00:23:25.128Z,17.92
2017-07-21T00:24:05.653Z,17.95
2017-07-21T00:24:46.220Z,17.9
2017-07-21T00:25:26.731Z,17.92
2017-07-21T00:26:07.275Z,17.89
2017-07-21T00:26:47.789Z,17.9
2017-07-21T00:27:28.340Z,17.77
2017-07-21T00:28:08.881Z,17.78
2017-07-21T00:28:49.387Z,17.82
2017-07-21T00:29:29.936Z,17.81
2017-07-21T00:30:10.450Z,17.78
2017-07-21T00:30:50.989Z,17.79
2017-07-21T00:31:31.517Z,17.72
2017-07-21T00:32:12.091Z,17.74
2017-07-21T00:32:52.627Z,17.68
2017-07-21T00:33:33.175Z,17.66
2017-07-21T00:34:13.692Z,17.62
2017-07-21T00:34:54.236Z,17.63
2017-07-21T00:35:34.779Z,17.64
2017-07-21T00:36:15.317Z,17.62
2017-07-21T00:36:55.839Z,17.58
2017-07-21T00:37:36.355Z,17.56
2017-07-21T00:38:16.876Z,17.51
2017-07-21T00:38:57.441Z,17.49
2017-07-21T00:39:37.940Z,17.43
2017-07-21T00:40:18.481Z,17.37
2017-07-21T00:40:59.041Z,17.36
2017-07-21T00:41:39.583Z,17.43
2017-07-21T00:42:20.111Z,17.3
2017-07-21T00:43:00.633Z,17.3
2017-07-21T00:43:41.181Z,17.36
2017-07-21T00:44:21.695Z,17.22
2017-07-21T00:45:02.256Z,17.19
2017-07-21T00:45:42.801Z,17.28
2017-07-21T00:46:23.310Z,17.19
2017-07-21T00:47:03.841Z,17.16
2017-07-21T00:47:44.378Z,17.18
2017-07-21T00:48:24.905Z,17.06
2017-07-21T00:49:05.431Z,17.08
2017-07-21T00:49:45.963Z,17.06
2017-07-21T00:50:26.479Z,17.06
2017-07-21T00:51:07.000Z,17.03
2017-07-21T00:51:47.549Z,17.08
2017-07-21T00:52:28.100Z,17.11
2017-07-21T00:53:08.652Z,17.04
2017-07-21T00:53:49.156Z,16.97
2017-07-21T00:54:29.677Z,17.04
2017-07-21T00:55:10.217Z,16.98
2017-07-21T00:55:50.749Z,16.97
2017-07-21T00:56:31.297Z,17.01
2017-07-21T00:57:11.814Z,17
2017-07-21T00:57:52.353Z,16.94
2017-07-21T00:58:32.878Z,16.94
2017-07-21T00:59:13.410Z,16.89
2017-07-21T00:59:53.932Z,16.83
2017-07-21T01:00:34.492Z,16.96
2017-07-21T01:01:14.984Z,16.85
2017-07-21T01:01:55.536Z,16.89
2017-07-21T01:02:36.098Z,16.82
2017-07-21T01:03:16.646Z,16.83
2017-07-21T01:03:57.192Z,16.86
2017-07-21T01:04:37.732Z,16.82
2017-07-21T01:05:18.249Z,16.82
2017-07-21T01:05:58.761Z,16.81
2017-07-21T01:06:39.298Z,16.81
2017-07-21T01:07:19.817Z,16.78
2017-07-21T01:08:00.349Z,16.78
2017-07-21T01:08:40.865Z,16.66
2017-07-21T01:09:21.489Z,16.7
2017-07-21T01:10:02.025Z,16.67
2017-07-21T01:10:42.520Z,16.81
2017-07-21T01:11:23.049Z,16.63
2017-07-21T01:12:03.583Z,16.64
2017-07-21T01:12:44.117Z,16.66
2017-07-21T01:13:24.640Z,16.63
2017-07-21T01:14:05.190Z,16.61
2017-07-21T01:14:45.741Z,16.58
2017-07-21T01:15:26.270Z,16.58
2017-07-21T01:16:06.802Z,16.6
2017-07-21T01:16:47.324Z,16.52
2017-07-21T01:17:27.847Z,16.48
2017-07-21T01:18:08.383Z,16.43
2017-07-21T01:18:48.917Z,16.5
2017-07-21T01:19:29.441Z,16.43
2017-07-21T01:20:09.973Z,16.46
2017-07-21T01:20:50.491Z,16.39
2017-07-21T01:21:31.043Z,16.43
2017-07-21T01:22:11.564Z,16.41
2017-07-21T01:22:52.123Z,16.39
2017-07-21T01:23:32.661Z,16.45
2017-07-21T01:24:13.212Z,16.39
2017-07-21T01:24:53.701Z,16.38
2017-07-21T01:25:34.229Z,16.23
2017-07-21T01:26:14.747Z,16.35
2017-07-21T01:26:55.295Z,16.3
2017-07-21T01:27:35.795Z,16.27
2017-07-21T01:28:16.353Z,16.3
2017-07-21T01:28:56.884Z,16.23
2017-07-21T01:29:37.403Z,16.24
2017-07-21T01:30:17.928Z,16.25
2017-07-21T01:30:58.477Z,16.27
2017-07-21T01:31:38.976Z,16.27
2017-07-21T01:32:19.588Z,16.11
2017-07-21T01:33:00.103Z,16.14
2017-07-21T01:33:40.686Z,16.17
2017-07-21T01:34:21.192Z,16.09
2017-07-21T01:35:01.749Z,16
2017-07-21T01:35:42.301Z,16.08
2017-07-21T01:36:22.857Z,15.97
2017-07-21T01:37:03.413Z,16.05
2017-07-21T01:37:43.953Z,16.01
2017-07-21T01:38:24.490Z,16.01
2017-07-21T01:39:05.020Z,16.01
2017-07-21T01:39:45.552Z,16
2017-07-21T01:40:26.098Z,16
2017-07-21T01:41:06.593Z,16.04
2017-07-21T01:41:47.117Z,16
2017-07-21T01:42:27.657Z,15.89
2017-07-21T01:43:08.219Z,15.86
2017-07-21T01:43:48.746Z,15.92
2017-07-21T01:44:29.299Z,15.92
2017-07-21T01:45:09.857Z,15.93
2017-07-21T01:45:50.346Z,15.78
2017-07-21T01:46:30.865Z,15.87
2017-07-21T01:47:11.408Z,15.87
2017-07-21T01:47:51.977Z,15.8
2017-07-21T01:48:32.517Z,15.86
2017-07-21T01:49:13.096Z,15.78
2017-07-21T01:49:53.630Z,15.84
2017-07-21T01:50:34.161Z,15.8
2017-07-21T01:51:14.711Z,15.78
2017-07-21T01:51:55.291Z,15.75
2017-07-21T01:52:35.896Z,15.83
2017-07-21T01:53:16.406Z,15.8
2017-07-21T01:53:56.935Z,15.78
2017-07-21T01:54:37.481Z,15.76
2017-07-21T01:55:18.021Z,15.69
2017-07-21T01:55:58.585Z,15.76
2017-07-21T01:56:39.132Z,15.68
2017-07-21T01:57:19.699Z,15.8
2017-07-21T01:58:00.239Z,15.67
2017-07-21T01:58:40.773Z,15.78
2017-07-21T01:59:21.296Z,15.8
2017-07-21T02:00:01.843Z,15.64
2017-07-21T02:00:42.364Z,15.72
2017-07-21T02:01:22.873Z,15.68
2017-07-21T02:02:03.421Z,15.78
2017-07-21T02:02:43.974Z,15.74
2017-07-21T02:03:24.513Z,15.71
2017-07-21T02:04:05.035Z,15.76
2017-07-21T02:04:45.567Z,15.69
2017-07-21T02:05:26.076Z,15.76
2017-07-21T02:06:06.610Z,15.64
2017-07-21T02:06:47.165Z,15.74
2017-07-21T02:07:27.708Z,15.72
2017-07-21T02:08:08.268Z,15.75
2017-07-21T02:08:48.793Z,15.75
2017-07-21T02:09:29.365Z,15.72
2017-07-21T02:10:09.889Z,15.72
2017-07-21T02:10:50.448Z,15.72
2017-07-21T02:11:30.974Z,15.76
2017-07-21T02:12:11.508Z,15.75
2017-07-21T02:12:52.051Z,15.8
2017-07-21T02:13:32.572Z,15.78
2017-07-21T02:14:13.107Z,15.68
2017-07-21T02:14:53.637Z,15.76
2017-07-21T02:15:34.166Z,15.78
2017-07-21T02:16:14.733Z,15.83
2017-07-21T02:16:55.245Z,15.78
2017-07-21T02:17:35.780Z,15.76
2017-07-21T02:18:16.325Z,15.78
2017-07-21T02:18:56.876Z,15.82
2017-07-21T02:19:37.371Z,15.82
2017-07-21T02:20:17.897Z,15.8
2017-07-21T02:20:58.442Z,15.84
2017-07-21T02:21:38.972Z,15.84
2017-07-21T02:22:19.523Z,15.8
2017-07-21T02:23:00.042Z,15.83
2017-07-21T02:23:40.575Z,15.82
2017-07-21T02:24:21.106Z,15.78
2017-07-21T02:25:01.652Z,15.84
2017-07-21T02:25:42.175Z,15.78
2017-07-21T02:26:22.727Z,15.84
2017-07-21T02:27:03.234Z,15.84
2017-07-21T02:27:43.772Z,15.87
2017-07-21T02:28:24.322Z,15.83
2017-07-21T02:29:04.830Z,15.84
2017-07-21T02:29:45.383Z,15.84
2017-07-21T02:30:25.879Z,15.78
2017-07-21T02:31:06.414Z,15.8
2017-07-21T02:31:46.974Z,15.83
2017-07-21T02:32:27.495Z,15.78
2017-07-21T02:33:08.045Z,15.83
2017-07-21T02:33:48.541Z,15.78
2017-07-21T02:34:29.076Z,15.8
2017-07-21T02:35:09.584Z,15.78
2017-07-21T02:35:50.140Z,15.76
2017-07-21T02:36:30.634Z,15.74
2017-07-21T02:37:11.181Z,15.67
2017-07-21T02:37:51.700Z,15.69
2017-07-21T02:38:32.328Z,15.71
2017-07-21T02:39:12.813Z,15.76
2017-07-21T02:39:53.338Z,15.72
2017-07-21T02:40:33.906Z,15.72
2017-07-21T02:41:14.396Z,15.69
2017-07-21T02:41:54.921Z,15.72
2017-07-21T02:42:35.439Z,15.67
2017-07-21T02:43:16.004Z,15.71
2017-07-21T02:43:56.557Z,15.71
2017-07-21T02:44:37.089Z,15.6
2017-07-21T02:45:17.576Z,15.6
2017-07-21T02:45:58.099Z,15.62
2017-07-21T02:46:38.649Z,15.6
2017-07-21T02:47:19.172Z,15.51
2017-07-21T02:47:59.668Z,15.57
2017-07-21T02:48:40.208Z,15.56
2017-07-21T02:49:20.741Z,15.53
2017-07-21T02:50:01.262Z,15.49
2017-07-21T02:50:41.768Z,15.53
2017-07-21T02:51:22.479Z,15.53
2017-07-21T02:52:02.990Z,15.49
2017-07-21T02:52:43.524Z,15.51
2017-07-21T02:53:24.055Z,15.5
2017-07-21T02:54:04.550Z,15.46
2017-07-21T02:54:45.092Z,15.51
2017-07-21T02:55:25.607Z,15.47
2017-07-21T02:56:06.156Z,15.47
2017-07-21T02:56:46.658Z,15.44
2017-07-21T02:57:27.165Z,15.5
2017-07-21T02:58:07.714Z,15.49
2017-07-21T02:58:48.253Z,15.5
2017-07-21T02:59:28.769Z,15.46
2017-07-21T03:00:09.301Z,15.39
2017-07-21T03:00:49.828Z,15.46
2017-07-21T03:01:30.434Z,15.43
2017-07-21T03:02:10.966Z,15.44
2017-07-21T03:02:51.491Z,15.43
2017-07-21T03:03:31.996Z,15.39
2017-07-21T03:04:12.529Z,15.35
2017-07-21T03:04:53.072Z,15.43
2017-07-21T03:05:33.610Z,15.44
2017-07-21T03:06:14.120Z,15.39
2017-07-21T03:06:54.668Z,15.41
2017-07-21T03:07:35.217Z,15.31
2017-07-21T03:08:15.772Z,15.32
2017-07-21T03:08:56.307Z,15.39
2017-07-21T03:09:36.816Z,15.35
2017-07-21T03:10:17.375Z,15.35
2017-07-21T03:10:57.874Z,15.34
2017-07-21T03:11:38.413Z,15.28
2017-07-21T03:12:18.972Z,15.25
2017-07-21T03:12:59.438Z,15.31
2017-07-21T03:13:39.966Z,15.34
2017-07-21T03:14:20.508Z,15.29
2017-07-21T03:15:01.027Z,15.28
2017-07-21T03:15:41.566Z,15.23
2017-07-21T03:16:22.110Z,15.29
2017-07-21T03:17:02.631Z,15.21
2017-07-21T03:17:43.322Z,15.25
2017-07-21T03:18:23.894Z,15.25
2017-07-21T03:19:04.440Z,15.21
2017-07-21T03:19:44.978Z,15.21
2017-07-21T03:20:25.517Z,15.23
2017-07-21T03:21:06.090Z,15.16
2017-07-21T03:21:46.681Z,15.17
2017-07-21T03:22:27.215Z,15.14
2017-07-21T03:23:07.750Z,15.13
2017-07-21T03:23:48.293Z,15.11
2017-07-21T03:24:28.836Z,15.09
2017-07-21T03:25:09.398Z,15.21
2017-07-21T03:25:49.932Z,15.16
2017-07-21T03:26:30.467Z,15.1
2017-07-21T03:27:10.988Z,15.03
2017-07-21T03:27:51.541Z,15.07
2017-07-21T03:28:32.069Z,15.09
2017-07-21T03:29:12.621Z,15.1
2017-07-21T03:29:53.135Z,15.03
2017-07-21T03:30:33.682Z,15.01
2017-07-21T03:31:14.241Z,15.07
2017-07-21T03:31:54.769Z,15.07
2017-07-21T03:32:35.296Z,15.07
2017-07-21T03:33:15.824Z,15.02
2017-07-21T03:33:56.357Z,15.02
2017-07-21T03:34:36.889Z,15.03
2017-07-21T03:35:17.417Z,14.96
2017-07-21T03:35:57.949Z,15.02
2017-07-21T03:36:38.479Z,14.96
2017-07-21T03:37:18.993Z,14.98
2017-07-21T03:37:59.523Z,14.94
2017-07-21T03:38:40.069Z,14.96
2017-07-21T03:39:20.619Z,14.94
2017-07-21T03:40:01.206Z,14.94
2017-07-21T03:40:41.747Z,14.89
2017-07-21T03:41:22.289Z,14.88
2017-07-21T03:42:02.828Z,14.88
2017-07-21T03:42:43.338Z,14.81
2017-07-21T03:43:23.901Z,14.81
2017-07-21T03:44:04.401Z,14.8
2017-07-21T03:44:44.937Z,14.88
2017-07-21T03:45:25.499Z,14.84
2017-07-21T03:46:06.038Z,14.83
2017-07-21T03:46:46.550Z,14.81
2017-07-21T03:47:27.096Z,14.84
2017-07-21T03:48:07.599Z,14.86
2017-07-21T03:48:48.150Z,14.78
2017-07-21T03:49:28.662Z,14.88
2017-07-21T03:50:09.217Z,14.83
2017-07-21T03:50:49.759Z,14.84
2017-07-21T03:51:30.315Z,14.86
2017-07-21T03:52:10.862Z,14.91
2017-07-21T03:52:51.356Z,14.81
2017-07-21T03:53:31.885Z,14.84
2017-07-21T03:54:12.407Z,14.88
2017-07-21T03:54:52.957Z,14.83
2017-07-21T03:55:33.460Z,14.86
2017-07-21T03:56:14.003Z,14.81
2017-07-21T03:56:54.517Z,14.86
2017-07-21T03:57:35.057Z,14.81
2017-07-21T03:58:15.604Z,14.86
2017-07-21T03:58:56.199Z,14.84
2017-07-21T03:59:36.659Z,14.81
2017-07-21T04:00:17.210Z,14.88
2017-07-21T04:00:58.170Z,14.77
2017-07-21T04:01:38.754Z,14.86
2017-07-21T04:02:19.393Z,14.88
2017-07-21T04:02:59.874Z,14.84
2017-07-21T04:03:40.417Z,14.81
2017-07-21T04:04:20.961Z,14.89
2017-07-21T04:05:01.553Z,14.88
2017-07-21T04:05:42.110Z,14.89
2017-07-21T04:06:22.739Z,14.94
2017-07-21T04:07:03.274Z,14.96
2017-07-21T04:07:43.793Z,14.98
2017-07-21T04:08:24.291Z,14.94
2017-07-21T04:09:04.818Z,14.96
2017-07-21T04:09:45.420Z,14.94
2017-07-21T04:10:25.967Z,14.91
2017-07-21T04:11:06.515Z,14.96
2017-07-21T04:11:47.024Z,14.91
2017-07-21T04:12:27.579Z,14.94
2017-07-21T04:13:08.078Z,15.03
2017-07-21T04:13:48.625Z,15.09
2017-07-21T04:14:29.149Z,15.03
2017-07-21T04:15:09.662Z,15.16
2017-07-21T04:15:50.211Z,15.03
2017-07-21T04:16:30.692Z,15.07
2017-07-21T04:17:11.299Z,15.13
2017-07-21T04:17:51.839Z,15.09
2017-07-21T04:18:32.391Z,15.07
2017-07-21T04:19:12.858Z,15.14
2017-07-21T04:19:53.486Z,15.11
2017-07-21T04:20:34.028Z,15.11
2017-07-21T04:21:14.653Z,15.03
2017-07-21T04:21:55.246Z,15.06
2017-07-21T04:22:35.810Z,15.07
2017-07-21T04:23:16.318Z,15.06
2017-07-21T04:23:56.951Z,15.07
2017-07-21T04:24:37.413Z,15.01
2017-07-21T04:25:17.910Z,15.07
2017-07-21T04:25:58.565Z,15.06
2017-07-21T04:26:39.227Z,15.09
2017-07-21T04:27:19.806Z,15.06
2017-07-21T04:28:00.349Z,15.14
2017-07-21T04:28:40.781Z,15.14
2017-07-21T04:29:21.356Z,15.14
2017-07-21T04:30:01.782Z,15.14
2017-07-21T04:30:42.297Z,15.16
2017-07-21T04:31:22.821Z,15.21
2017-07-21T04:32:03.354Z,15.17
2017-07-21T04:32:43.865Z,15.19
2017-07-21T04:33:24.402Z,15.23
2017-07-21T04:34:04.978Z,15.19
2017-07-21T04:34:45.690Z,15.23
2017-07-21T04:35:26.208Z,15.28
2017-07-21T04:36:06.820Z,15.29
2017-07-21T04:36:47.245Z,15.29
2017-07-21T04:37:27.799Z,15.39
2017-07-21T04:38:08.317Z,15.31
2017-07-21T04:38:48.816Z,15.38
2017-07-21T04:39:29.340Z,15.32
2017-07-21T04:40:09.885Z,15.32
2017-07-21T04:40:50.416Z,15.41
2017-07-21T04:41:30.923Z,15.44
2017-07-21T04:42:11.453Z,15.39
2017-07-21T04:42:51.971Z,15.5
2017-07-21T04:43:32.505Z,15.5
2017-07-21T04:44:13.028Z,15.47
2017-07-21T04:44:53.564Z,15.49
2017-07-21T04:45:34.111Z,15.47
2017-07-21T04:46:14.666Z,15.49
2017-07-21T04:46:55.177Z,15.53
2017-07-21T04:47:35.712Z,15.5
2017-07-21T04:48:16.241Z,15.46
2017-07-21T04:48:56.770Z,15.56
2017-07-21T04:49:37.287Z,15.56
2017-07-21T04:50:17.810Z,15.53
2017-07-21T04:50:58.355Z,15.53
2017-07-21T04:51:38.892Z,15.62
2017-07-21T04:52:19.442Z,15.54
2017-07-21T04:52:59.980Z,15.59
2017-07-21T04:53:40.505Z,15.62
2017-07-21T04:54:21.201Z,15.56
2017-07-21T04:55:01.875Z,15.6
2017-07-21T04:55:42.399Z,15.56
2017-07-21T04:56:22.987Z,15.68
2017-07-21T04:57:03.519Z,15.57
2017-07-21T04:57:44.047Z,15.6
2017-07-21T04:58:24.614Z,15.65
2017-07-21T04:59:05.139Z,15.69
2017-07-21T04:59:45.663Z,15.72
2017-07-21T05:00:26.191Z,15.68
2017-07-21T05:01:06.758Z,15.71
2017-07-21T05:01:47.285Z,15.69
2017-07-21T05:02:27.826Z,15.71
2017-07-21T05:03:08.362Z,15.64
2017-07-21T05:03:48.890Z,15.69
2017-07-21T05:04:29.428Z,15.64
2017-07-21T05:05:09.969Z,15.57
2017-07-21T05:05:50.501Z,15.6
2017-07-21T05:06:31.046Z,15.67
2017-07-21T05:07:11.565Z,15.57
2017-07-21T05:07:52.100Z,15.69
2017-07-21T05:08:32.707Z,15.6
2017-07-21T05:09:13.215Z,15.62
2017-07-21T05:09:53.730Z,15.68
2017-07-21T05:10:34.293Z,15.6
2017-07-21T05:11:14.840Z,15.68
2017-07-21T05:11:55.710Z,15.69
2017-07-21T05:12:36.247Z,15.65
2017-07-21T05:13:16.733Z,15.69
2017-07-21T05:13:57.257Z,15.57
2017-07-21T05:14:37.870Z,15.57
2017-07-21T05:15:18.411Z,15.54
2017-07-21T05:15:58.977Z,15.6
2017-07-21T05:16:39.432Z,15.56
2017-07-21T05:17:19.966Z,15.64
2017-07-21T05:18:00.454Z,15.56
2017-07-21T05:18:40.996Z,15.64
2017-07-21T05:19:21.550Z,15.65
2017-07-21T05:20:02.082Z,15.59
2017-07-21T05:20:42.765Z,15.6
2017-07-21T05:21:23.552Z,15.57
2017-07-21T05:22:03.976Z,15.57
2017-07-21T05:22:44.502Z,15.53
2017-07-21T05:23:24.989Z,15.6
2017-07-21T05:24:05.535Z,15.54
2017-07-21T05:24:46.040Z,15.56
2017-07-21T05:25:26.583Z,15.56
2017-07-21T05:26:07.109Z,15.47
2017-07-21T05:26:47.626Z,15.56
2017-07-21T05:27:28.412Z,15.53
2017-07-21T05:28:08.982Z,15.51
2017-07-21T05:28:49.493Z,15.56
2017-07-21T05:29:29.996Z,15.54
2017-07-21T05:30:10.542Z,15.56
2017-07-21T05:30:51.041Z,15.49
2017-07-21T05:31:31.685Z,15.51
2017-07-21T05:32:12.218Z,15.51
2017-07-21T05:32:52.756Z,15.65
2017-07-21T05:33:33.302Z,15.6
2017-07-21T05:34:13.826Z,15.65
2017-07-21T05:34:54.402Z,15.6
2017-07-21T05:35:34.893Z,15.6
2017-07-21T05:36:15.441Z,15.6
2017-07-21T05:36:56.002Z,15.62
2017-07-21T05:37:36.618Z,15.59
2017-07-21T05:38:17.206Z,15.65
2017-07-21T05:38:57.753Z,15.62
2017-07-21T05:39:38.238Z,15.56
2017-07-21T05:40:18.781Z,15.59
2017-07-21T05:40:59.332Z,15.56
2017-07-21T05:41:39.898Z,15.56
2017-07-21T05:42:20.423Z,15.64
2017-07-21T05:43:01.022Z,15.57
2017-07-21T05:43:41.643Z,15.6
2017-07-21T05:44:22.171Z,15.56
2017-07-21T05:45:02.688Z,15.64
2017-07-21T05:45:43.257Z,15.6
2017-07-21T05:46:23.757Z,15.67
2017-07-21T05:47:04.265Z,15.71
2017-07-21T05:47:44.815Z,15.64
2017-07-21T05:48:25.349Z,15.72
2017-07-21T05:49:05.927Z,15.68
2017-07-21T05:49:46.502Z,15.67
2017-07-21T05:50:27.030Z,15.69
2017-07-21T05:51:07.602Z,15.75
2017-07-21T05:51:48.196Z,15.8
2017-07-21T05:52:28.659Z,15.78
2017-07-21T05:53:09.224Z,15.8
2017-07-21T05:53:49.741Z,15.84
2017-07-21T05:54:30.282Z,15.83
2017-07-21T05:55:10.842Z,15.86
2017-07-21T05:55:51.333Z,15.93
2017-07-21T05:56:31.910Z,15.89
2017-07-21T05:57:12.451Z,15.93
2017-07-21T05:57:53.058Z,15.89
2017-07-21T05:58:33.796Z,15.86
2017-07-21T05:59:14.523Z,15.93
2017-07-21T05:59:55.025Z,15.97
2017-07-21T06:00:35.523Z,16.02
2017-07-21T06:01:16.098Z,16
2017-07-21T06:01:56.646Z,16.01
2017-07-21T06:02:37.138Z,16.02
2017-07-21T06:03:17.687Z,15.97
2017-07-21T06:03:58.220Z,16.04
2017-07-21T06:04:39.332Z,16.01
2017-07-21T06:05:20.023Z,16.05
2017-07-21T06:06:00.444Z,16.09
2017-07-21T06:06:41.124Z,16.12
2017-07-21T06:07:21.552Z,16.08
2017-07-21T06:08:02.111Z,16.02
2017-07-21T06:08:42.638Z,16.11
2017-07-21T06:09:23.220Z,16.14
2017-07-21T06:10:03.715Z,16.27
2017-07-21T06:10:44.247Z,16.21
2017-07-21T06:11:24.779Z,16.2
2017-07-21T06:12:05.307Z,16.24
2017-07-21T06:12:45.823Z,16.24
2017-07-21T06:13:26.500Z,16.3
2017-07-21T06:14:07.108Z,16.27
2017-07-21T06:14:47.952Z,16.3
2017-07-21T06:15:28.409Z,16.33
2017-07-21T06:16:08.961Z,16.41
2017-07-21T06:16:49.480Z,16.41
2017-07-21T06:17:30.845Z,16.43
2017-07-21T06:18:11.459Z,16.49
2017-07-21T06:18:51.864Z,16.39
2017-07-21T06:19:32.359Z,16.6
2017-07-21T06:20:12.867Z,16.58
2017-07-21T06:20:53.417Z,16.58
2017-07-21T06:21:33.955Z,16.68
2017-07-21T06:22:14.456Z,16.64
2017-07-21T06:22:55.008Z,16.7
2017-07-21T06:23:35.515Z,16.83
2017-07-21T06:24:16.066Z,16.88
2017-07-21T06:24:56.583Z,16.85
2017-07-21T06:25:37.146Z,16.94
2017-07-21T06:26:17.638Z,16.94
2017-07-21T06:26:58.150Z,16.91
2017-07-21T06:27:38.741Z,16.97
2017-07-21T06:28:19.247Z,17.04
2017-07-21T06:28:59.776Z,17.01
2017-07-21T06:29:40.317Z,17.03
2017-07-21T06:30:20.846Z,17.04
2017-07-21T06:31:01.407Z,17.21
2017-07-21T06:31:41.945Z,17.15
2017-07-21T06:32:22.499Z,17.3
2017-07-21T06:33:03.055Z,17.19
2017-07-21T06:33:43.588Z,17.33
2017-07-21T06:34:26.247Z,17.31
2017-07-21T06:35:07.872Z,17.36
2017-07-21T06:35:48.383Z,17.37
2017-07-21T06:36:28.895Z,17.4
2017-07-21T06:37:09.422Z,17.44
2017-07-21T06:37:50.498Z,17.48
2017-07-21T06:38:31.063Z,17.54
2017-07-21T06:39:11.612Z,17.59
2017-07-21T06:39:52.300Z,17.56
2017-07-21T06:40:33.142Z,17.68
2017-07-21T06:41:14.120Z,17.72
2017-07-21T06:41:55.128Z,17.81
2017-07-21T06:42:35.662Z,17.74
2017-07-21T06:43:16.229Z,17.82
2017-07-21T06:43:56.847Z,17.89
2017-07-21T06:44:37.574Z,17.93
2017-07-21T06:45:18.094Z,18.03
2017-07-21T06:45:58.636Z,17.97
2017-07-21T06:46:39.182Z,17.96
2017-07-21T06:47:19.721Z,18.03
2017-07-21T06:48:00.261Z,18
2017-07-21T06:48:40.900Z,18.08
2017-07-21T06:49:21.412Z,18.12
2017-07-21T06:50:01.967Z,18.14
2017-07-21T06:50:42.548Z,18.23
2017-07-21T06:51:23.286Z,18.23
2017-07-21T06:52:03.909Z,18.26
2017-07-21T06:52:45.634Z,18.35
2017-07-21T06:53:26.089Z,18.37
2017-07-21T06:54:07.873Z,18.35
2017-07-21T06:54:49.148Z,18.39
2017-07-21T06:55:30.614Z,18.39
2017-07-21T06:56:11.511Z,18.45
2017-07-21T06:56:51.983Z,18.47
2017-07-21T06:57:32.544Z,18.55
2017-07-21T06:58:13.491Z,18.55
2017-07-21T06:58:54.031Z,18.58
2017-07-21T06:59:34.660Z,18.65
2017-07-21T07:00:15.195Z,18.78
2017-07-21T07:00:55.742Z,18.8
2017-07-21T07:01:36.274Z,18.9
2017-07-21T07:02:16.880Z,18.94
2017-07-21T07:02:57.773Z,19.04
2017-07-21T07:03:38.299Z,19.04
2017-07-21T07:04:18.854Z,19
2017-07-21T07:04:59.396Z,19.14
2017-07-21T07:05:40.039Z,19.25
2017-07-21T07:06:20.577Z,19.14
2017-07-21T07:07:01.120Z,19.1
2017-07-21T07:07:41.894Z,19.07
2017-07-21T07:08:22.442Z,19.16
2017-07-21T07:09:03.103Z,19.1
2017-07-21T07:09:43.788Z,19.16
2017-07-21T07:10:24.463Z,19.1
2017-07-21T07:11:05.003Z,19.08
2017-07-21T07:11:45.542Z,19.1
2017-07-21T07:12:26.357Z,19.13
2017-07-21T07:13:07.274Z,19.13
2017-07-21T07:13:48.137Z,19.16
2017-07-21T07:14:28.902Z,19.14
2017-07-21T07:15:09.443Z,19.18
2017-07-21T07:15:50.099Z,19.18
2017-07-21T07:16:30.969Z,19.19
2017-07-21T07:17:11.694Z,19.21
2017-07-21T07:17:52.701Z,19.29
2017-07-21T07:18:33.230Z,19.25
2017-07-21T07:19:14.082Z,19.32
2017-07-21T07:19:54.742Z,19.26
2017-07-21T07:20:35.780Z,19.26
2017-07-21T07:21:27.847Z,19.28
2017-07-21T07:22:10.973Z,19.39
2017-07-21T07:22:51.936Z,19.4
2017-07-21T07:23:32.786Z,19.5
2017-07-21T07:24:13.226Z,19.58
2017-07-21T07:24:53.940Z,19.73
2017-07-21T07:25:35.574Z,19.83
2017-07-21T07:26:16.117Z,19.91
2017-07-21T07:26:56.672Z,20.06
2017-07-21T07:27:37.605Z,20.13
2017-07-21T07:28:18.278Z,20.28
2017-07-21T07:28:59.002Z,20.41
2017-07-21T07:29:39.714Z,20.47
2017-07-21T07:30:20.224Z,20.47
2017-07-21T07:31:00.821Z,20.52
2017-07-21T07:31:41.508Z,20.61
2017-07-21T07:32:22.348Z,20.67
2017-07-21T07:33:02.878Z,20.79
2017-07-21T07:33:43.403Z,20.84
2017-07-21T07:34:24.092Z,20.87
2017-07-21T07:35:04.799Z,20.94
2017-07-21T07:35:45.334Z,20.87
2017-07-21T07:36:25.936Z,20.94
2017-07-21T07:37:06.733Z,20.98
2017-07-21T07:37:47.401Z,21.12
2017-07-21T07:38:27.941Z,21.16
2017-07-21T07:39:08.632Z,21.04
2017-07-21T07:39:49.121Z,21.12
2017-07-21T07:40:29.712Z,21.13
2017-07-21T07:41:10.237Z,21.01
2017-07-21T07:41:50.781Z,20.94
2017-07-21T07:42:31.330Z,21.01
2017-07-21T07:43:11.859Z,20.97
2017-07-21T07:43:52.404Z,21.04
2017-07-21T07:44:32.934Z,20.99
2017-07-21T07:45:13.479Z,21.03
2017-07-21T07:45:54.070Z,20.99
2017-07-21T07:46:34.640Z,20.95
2017-07-21T07:47:15.202Z,20.82
2017-07-21T07:47:55.734Z,20.79
2017-07-21T07:48:36.267Z,20.77
2017-07-21T07:49:16.813Z,20.74
2017-07-21T07:49:57.372Z,20.74
2017-07-21T07:50:38.021Z,20.73
2017-07-21T07:51:18.541Z,20.72
2017-07-21T07:51:59.087Z,20.73
2017-07-21T07:52:39.623Z,20.84
2017-07-21T07:53:20.155Z,20.87
2017-07-21T07:54:00.740Z,20.89
2017-07-21T07:54:41.256Z,20.95
2017-07-21T07:55:21.797Z,21.04
2017-07-21T07:56:02.333Z,21.12
2017-07-21T07:56:42.875Z,21.19
2017-07-21T07:57:23.429Z,21.35
2017-07-21T07:58:03.963Z,21.49
2017-07-21T07:58:44.506Z,21.67
2017-07-21T07:59:25.054Z,21.82
2017-07-21T08:00:05.591Z,21.94
2017-07-21T08:00:46.163Z,22.05
2017-07-21T08:01:26.699Z,22.06
2017-07-21T08:02:07.240Z,22.18
2017-07-21T08:02:47.780Z,22.22
2017-07-21T08:03:28.329Z,22.21
2017-07-21T08:04:08.868Z,22.27
2017-07-21T08:04:49.412Z,22.3
2017-07-21T08:05:29.942Z,22.35
2017-07-21T08:06:10.556Z,22.49
2017-07-21T08:06:51.080Z,22.49
2017-07-21T08:07:31.638Z,22.6
2017-07-21T08:08:12.193Z,22.6
2017-07-21T08:08:52.745Z,22.7
2017-07-21T08:09:33.293Z,22.73
2017-07-21T08:10:13.831Z,22.86
2017-07-21T08:10:54.437Z,23.02
2017-07-21T08:11:34.982Z,23.05
2017-07-21T08:12:15.520Z,23.27
2017-07-21T08:12:56.036Z,23.39
2017-07-21T08:13:36.602Z,23.55
2017-07-21T08:14:17.141Z,23.65
2017-07-21T08:14:57.696Z,23.61
2017-07-21T08:15:38.242Z,23.76
2017-07-21T08:16:18.786Z,23.9
2017-07-21T08:16:59.338Z,23.78
2017-07-21T08:17:39.882Z,23.87
2017-07-21T08:18:20.439Z,23.95
2017-07-21T08:19:00.963Z,24.05
2017-07-21T08:19:41.509Z,24.09
2017-07-21T08:20:22.051Z,24.16
2017-07-21T08:21:02.583Z,24.18
2017-07-21T08:21:43.101Z,24.25
2017-07-21T08:22:23.645Z,24.12
2017-07-21T08:23:04.197Z,24.16
2017-07-21T08:23:44.754Z,23.98
2017-07-21T08:24:25.283Z,23.85
2017-07-21T08:25:05.837Z,23.72
2017-07-21T08:25:46.376Z,23.57
2017-07-21T08:26:26.958Z,23.48
2017-07-21T08:27:07.499Z,23.43
2017-07-21T08:27:48.039Z,23.38
2017-07-21T08:28:28.576Z,23.32
2017-07-21T08:30:07.437Z,23.27
2017-07-21T08:30:47.928Z,23.32
2017-07-21T08:31:28.461Z,23.32
2017-07-21T08:32:09.088Z,23.33
2017-07-21T08:32:49.625Z,23.43
2017-07-21T08:33:30.224Z,23.61
2017-07-21T08:34:10.723Z,23.72
2017-07-21T08:34:51.271Z,23.85
2017-07-21T08:35:31.791Z,23.9
2017-07-21T08:36:12.340Z,23.97
2017-07-21T08:36:52.917Z,24.21
2017-07-21T08:37:33.388Z,24.28
2017-07-21T08:38:13.923Z,24.37
2017-07-21T08:38:54.446Z,24.52
2017-07-21T08:39:34.971Z,24.68
2017-07-21T08:40:15.547Z,24.76
2017-07-21T08:40:56.066Z,24.81
2017-07-21T08:41:36.600Z,25
2017-07-21T08:42:17.137Z,25.15
2017-07-21T08:42:57.710Z,25.23
2017-07-21T08:43:38.157Z,25.17
2017-07-21T08:44:18.649Z,24.96
2017-07-21T08:44:59.237Z,24.96
2017-07-21T08:45:39.744Z,25.02
2017-07-21T08:46:20.443Z,25.02